Wallis, Texas
Current Conditions -  °F | °C
As of 10:15 AM on Wednesday 28 Jan 2015 (Local Time) from KELA Reporting Station
Clear Clear  
Wind Chill: 65°   Ceiling: Unl
Heat Index: 65°   Visibility: 10mi
Dew Point: 46°   Wind: 5mph
Humidity: 49%   Direction: 220°SW
Pressure: 30.21"   Gusts: NA
Location:  29.63°N, 96.07°W
Report Text: KELA 281615Z AUTO 22004KT 10SM CLR 18/08 A3021 RMK AO2 T01830075
Loading
Personal Weather Stations






























Interactive Weather Map New forecast layout! Learn more

10-Day Weather Forecast

Advertisements
Track Severe Weather on mobile